sensor_id;sensor_type;location;lat;lon;timestamp;pressure;altitude;pressure_sealevel;temperature;humidity
25947;BME280;13745;51.470;9.894;2022-10-13T00:00:47;99888.84;;;12.14;60.11
25947;BME280;13745;51.470;9.894;2022-10-13T00:03:33;99889.59;;;12.20;60.32
25947;BME280;13745;51.470;9.894;2022-10-13T00:06:22;99887.63;;;12.25;60.66
25947;BME280;13745;51.470;9.894;2022-10-13T00:09:08;99888.66;;;12.29;60.42
25947;BME280;13745;51.470;9.894;2022-10-13T00:11:55;99884.25;;;12.33;60.56
25947;BME280;13745;51.470;9.894;2022-10-13T00:14:43;99880.66;;;12.37;61.09
25947;BME280;13745;51.470;9.894;2022-10-13T00:17:29;99880.88;;;12.41;60.73
25947;BME280;13745;51.470;9.894;2022-10-13T00:20:15;99880.00;;;12.45;60.88
25947;BME280;13745;51.470;9.894;2022-10-13T00:23:01;99882.91;;;12.49;60.88
25947;BME280;13745;51.470;9.894;2022-10-13T00:25:48;99879.59;;;12.52;61.18
25947;BME280;13745;51.470;9.894;2022-10-13T00:28:34;99878.53;;;12.53;60.98
25947;BME280;13745;51.470;9.894;2022-10-13T00:31:23;99877.44;;;12.53;61.34
25947;BME280;13745;51.470;9.894;2022-10-13T00:34:09;99881.31;;;12.48;61.37
25947;BME280;13745;51.470;9.894;2022-10-13T00:36:55;99885.94;;;12.47;61.15
25947;BME280;13745;51.470;9.894;2022-10-13T00:39:42;99884.63;;;12.45;61.17
25947;BME280;13745;51.470;9.894;2022-10-13T00:42:28;99877.06;;;12.42;61.54
25947;BME280;13745;51.470;9.894;2022-10-13T00:45:22;99873.25;;;12.43;61.43
25947;BME280;13745;51.470;9.894;2022-10-13T00:48:09;99877.63;;;12.39;61.62
25947;BME280;13745;51.470;9.894;2022-10-13T00:50:55;99876.56;;;12.40;62.23
25947;BME280;13745;51.470;9.894;2022-10-13T00:53:42;99868.41;;;12.40;62.10
25947;BME280;13745;51.470;9.894;2022-10-13T00:56:29;99867.81;;;12.43;62.04
25947;BME280;13745;51.470;9.894;2022-10-13T00:59:17;99871.94;;;12.40;61.88
25947;BME280;13745;51.470;9.894;2022-10-13T01:02:06;99869.50;;;12.39;61.82
25947;BME280;13745;51.470;9.894;2022-10-13T01:04:54;99869.78;;;12.37;62.24
25947;BME280;13745;51.470;9.894;2022-10-13T01:07:41;99873.00;;;12.39;62.05
25947;BME280;13745;51.470;9.894;2022-10-13T01:10:35;99863.25;;;12.38;62.21
25947;BME280;13745;51.470;9.894;2022-10-13T01:13:34;99866.56;;;12.35;62.26
25947;BME280;13745;51.470;9.894;2022-10-13T01:16:29;99856.59;;;12.31;62.21
25947;BME280;13745;51.470;9.894;2022-10-13T01:19:23;99865.91;;;12.25;61.88
25947;BME280;13745;51.470;9.894;2022-10-13T01:22:23;99868.69;;;12.20;61.41
25947;BME280;13745;51.470;9.894;2022-10-13T01:25:25;99861.66;;;12.19;61.94
25947;BME280;13745;51.470;9.894;2022-10-13T01:28:38;99858.84;;;12.24;62.09
25947;BME280;13745;51.470;9.894;2022-10-13T01:31:36;99859.91;;;12.28;61.75
25947;BME280;13745;51.470;9.894;2022-10-13T01:34:29;99861.00;;;12.27;61.60
25947;BME280;13745;51.470;9.894;2022-10-13T01:37:23;99853.50;;;12.19;61.88
25947;BME280;13745;51.470;9.894;2022-10-13T01:40:16;99852.75;;;12.14;62.05
25947;BME280;13745;51.470;9.894;2022-10-13T01:43:07;99855.78;;;12.12;62.28
25947;BME280;13745;51.470;9.894;2022-10-13T01:45:57;99855.56;;;12.09;62.40
25947;BME280;13745;51.470;9.894;2022-10-13T01:48:47;99845.13;;;11.98;62.49
25947;BME280;13745;51.470;9.894;2022-10-13T01:51:37;99837.56;;;11.95;62.26
25947;BME280;13745;51.470;9.894;2022-10-13T01:54:24;99850.03;;;11.96;62.28
25947;BME280;13745;51.470;9.894;2022-10-13T01:57:26;99849.03;;;11.92;62.33
25947;BME280;13745;51.470;9.894;2022-10-13T02:00:16;99846.13;;;11.84;62.40
25947;BME280;13745;51.470;9.894;2022-10-13T02:03:09;99837.84;;;11.75;62.65
25947;BME280;13745;51.470;9.894;2022-10-13T02:06:06;99837.84;;;11.75;63.01
25947;BME280;13745;51.470;9.894;2022-10-13T02:09:02;99839.22;;;11.73;62.54
25947;BME280;13745;51.470;9.894;2022-10-13T02:11:53;99827.13;;;11.65;63.23
25947;BME280;13745;51.470;9.894;2022-10-13T02:14:42;99829.91;;;11.61;62.59
25947;BME280;13745;51.470;9.894;2022-10-13T02:17:30;99817.44;;;11.60;62.71
25947;BME280;13745;51.470;9.894;2022-10-13T02:20:16;99820.66;;;11.62;63.66
25947;BME280;13745;51.470;9.894;2022-10-13T02:23:08;99816.84;;;11.63;63.39
25947;BME280;13745;51.470;9.894;2022-10-13T02:25:56;99817.66;;;11.63;63.09
25947;BME280;13745;51.470;9.894;2022-10-13T02:28:43;99824.94;;;11.67;63.61
25947;BME280;13745;51.470;9.894;2022-10-13T02:31:29;99827.56;;;11.72;63.27
25947;BME280;13745;51.470;9.894;2022-10-13T02:34:15;99820.19;;;11.78;63.34
25947;BME280;13745;51.470;9.894;2022-10-13T02:37:03;99824.22;;;11.80;63.84
25947;BME280;13745;51.470;9.894;2022-10-13T02:39:50;99820.63;;;11.85;63.47
25947;BME280;13745;51.470;9.894;2022-10-13T02:42:37;99822.22;;;11.86;63.56
25947;BME280;13745;51.470;9.894;2022-10-13T02:45:23;99819.81;;;11.84;63.75
25947;BME280;13745;51.470;9.894;2022-10-13T02:48:12;99810.78;;;11.88;64.00
25947;BME280;13745;51.470;9.894;2022-10-13T02:50:58;99808.84;;;11.94;64.07
25947;BME280;13745;51.470;9.894;2022-10-13T02:53:44;99808.75;;;11.99;64.17
25947;BME280;13745;51.470;9.894;2022-10-13T02:56:31;99800.59;;;11.99;64.65
25947;BME280;13745;51.470;9.894;2022-10-13T02:59:17;99797.38;;;11.97;64.23
25947;BME280;13745;51.470;9.894;2022-10-13T03:02:03;99798.19;;;11.97;64.56
25947;BME280;13745;51.470;9.894;2022-10-13T03:04:49;99793.78;;;12.01;64.71
25947;BME280;13745;51.470;9.894;2022-10-13T03:07:35;99796.78;;;12.00;64.70
25947;BME280;13745;51.470;9.894;2022-10-13T03:10:21;99792.47;;;11.99;65.02
25947;BME280;13745;51.470;9.894;2022-10-13T03:13:10;99791.97;;;11.97;64.95
25947;BME280;13745;51.470;9.894;2022-10-13T03:15:56;99787.13;;;11.94;65.54
25947;BME280;13745;51.470;9.894;2022-10-13T03:18:42;99785.50;;;11.93;65.18
25947;BME280;13745;51.470;9.894;2022-10-13T03:21:29;99795.31;;;11.89;65.36
25947;BME280;13745;51.470;9.894;2022-10-13T03:24:14;99793.72;;;11.88;64.89
25947;BME280;13745;51.470;9.894;2022-10-13T03:27:00;99799.13;;;11.88;65.36
25947;BME280;13745;51.470;9.894;2022-10-13T03:29:47;99799.13;;;11.88;65.16
25947;BME280;13745;51.470;9.894;2022-10-13T03:32:33;99795.91;;;11.86;65.26
25947;BME280;13745;51.470;9.894;2022-10-13T03:35:19;99795.31;;;11.89;65.35
25947;BME280;13745;51.470;9.894;2022-10-13T03:38:05;99798.03;;;11.89;65.46
25947;BME280;13745;51.470;9.894;2022-10-13T03:40:52;99796.16;;;11.89;65.15
25947;BME280;13745;51.470;9.894;2022-10-13T03:43:38;99805.59;;;11.92;65.13
25947;BME280;13745;51.470;9.894;2022-10-13T03:46:28;99802.59;;;11.93;65.16
25947;BME280;13745;51.470;9.894;2022-10-13T03:49:16;99802.91;;;11.92;65.79
25947;BME280;13745;51.470;9.894;2022-10-13T03:52:02;99803.41;;;11.94;65.93
25947;BME280;13745;51.470;9.894;2022-10-13T03:54:48;99803.91;;;11.96;65.76
25947;BME280;13745;51.470;9.894;2022-10-13T03:57:34;99802.31;;;11.95;65.77
25947;BME280;13745;51.470;9.894;2022-10-13T04:00:20;99794.75;;;11.92;65.81
25947;BME280;13745;51.470;9.894;2022-10-13T04:03:08;99801.19;;;11.96;66.06
25947;BME280;13745;51.470;9.894;2022-10-13T04:05:54;99799.81;;;11.98;65.96
25947;BME280;13745;51.470;9.894;2022-10-13T04:08:40;99798.41;;;12.01;66.09
25947;BME280;13745;51.470;9.894;2022-10-13T04:11:26;99796.22;;;12.03;65.83
25947;BME280;13745;51.470;9.894;2022-10-13T04:14:13;99799.44;;;12.05;65.73
25947;BME280;13745;51.470;9.894;2022-10-13T04:16:58;99802.69;;;12.07;65.81
25947;BME280;13745;51.470;9.894;2022-10-13T04:19:46;99796.16;;;12.08;65.55
25947;BME280;13745;51.470;9.894;2022-10-13T04:22:31;99798.84;;;12.08;66.10
25947;BME280;13745;51.470;9.894;2022-10-13T04:25:17;99797.25;;;12.07;65.57
25947;BME280;13745;51.470;9.894;2022-10-13T04:28:04;99804.28;;;12.08;65.74
25947;BME280;13745;51.470;9.894;2022-10-13T04:30:54;99808.00;;;12.11;65.65
25947;BME280;13745;51.470;9.894;2022-10-13T04:33:40;99805.28;;;12.11;65.85
25947;BME280;13745;51.470;9.894;2022-10-13T04:36:27;99803.09;;;12.13;66.08
25947;BME280;13745;51.470;9.894;2022-10-13T04:39:13;99805.81;;;12.13;65.92
25947;BME280;13745;51.470;9.894;2022-10-13T04:41:58;99798.47;;;12.14;65.90
25947;BME280;13745;51.470;9.894;2022-10-13T04:44:44;99798.47;;;12.14;66.10
25947;BME280;13745;51.470;9.894;2022-10-13T04:47:33;99797.75;;;12.08;66.14
25947;BME280;13745;51.470;9.894;2022-10-13T04:50:20;99789.63;;;12.08;66.06
25947;BME280;13745;51.470;9.894;2022-10-13T04:53:17;99802.06;;;12.09;65.92
25947;BME280;13745;51.470;9.894;2022-10-13T04:56:04;99799.38;;;12.09;66.22
25947;BME280;13745;51.470;9.894;2022-10-13T04:58:51;99791.81;;;12.07;66.16
25947;BME280;13745;51.470;9.894;2022-10-13T05:01:37;99791.00;;;12.06;66.11
25947;BME280;13745;51.470;9.894;2022-10-13T05:04:25;99791.81;;;12.07;66.34
25947;BME280;13745;51.470;9.894;2022-10-13T05:07:11;99786.38;;;12.07;65.95
25947;BME280;13745;51.470;9.894;2022-10-13T05:09:59;99778.53;;;12.05;66.34
25947;BME280;13745;51.470;9.894;2022-10-13T05:12:44;99776.94;;;12.04;65.93
25947;BME280;13745;51.470;9.894;2022-10-13T05:15:30;99783.16;;;12.05;66.12
25947;BME280;13745;51.470;9.894;2022-10-13T05:18:16;99780.44;;;12.05;65.83
25947;BME280;13745;51.470;9.894;2022-10-13T05:21:06;99766.88;;;12.05;66.02
25947;BME280;13745;51.470;9.894;2022-10-13T05:23:56;99769.59;;;12.05;65.99
25947;BME280;13745;51.470;9.894;2022-10-13T05:26:44;99769.66;;;12.00;66.18
25947;BME280;13745;51.470;9.894;2022-10-13T05:29:31;99772.66;;;11.98;66.54
25947;BME280;13745;51.470;9.894;2022-10-13T05:32:16;99781.31;;;12.00;65.91
25947;BME280;13745;51.470;9.894;2022-10-13T05:35:02;99775.16;;;11.95;66.78
25947;BME280;13745;51.470;9.894;2022-10-13T05:37:48;99779.50;;;11.96;66.26
25947;BME280;13745;51.470;9.894;2022-10-13T05:40:34;99775.75;;;11.92;66.87
25947;BME280;13745;51.470;9.894;2022-10-13T05:43:22;99773.84;;;11.92;66.51
25947;BME280;13745;51.470;9.894;2022-10-13T05:46:09;99774.16;;;11.91;66.49
25947;BME280;13745;51.470;9.894;2022-10-13T05:48:57;99769.81;;;11.90;66.82
25947;BME280;13745;51.470;9.894;2022-10-13T05:51:46;99768.94;;;11.94;66.68
25947;BME280;13745;51.470;9.894;2022-10-13T05:54:35;99763.72;;;11.98;66.93
25947;BME280;13745;51.470;9.894;2022-10-13T05:57:24;99761.81;;;11.98;66.65
25947;BME280;13745;51.470;9.894;2022-10-13T06:00:15;99761.00;;;11.98;67.18
25947;BME280;13745;51.470;9.894;2022-10-13T06:03:06;99762.84;;;12.02;67.02
25947;BME280;13745;51.470;9.894;2022-10-13T06:05:53;99753.38;;;12.00;66.65
25947;BME280;13745;51.470;9.894;2022-10-13T06:08:39;99743.03;;;12.02;66.68
25947;BME280;13745;51.470;9.894;2022-10-13T06:11:26;99743.03;;;12.02;67.34
25947;BME280;13745;51.470;9.894;2022-10-13T06:14:12;99744.94;;;12.01;67.27
25947;BME280;13745;51.470;9.894;2022-10-13T06:16:59;99739.75;;;12.05;67.62
25947;BME280;13745;51.470;9.894;2022-10-13T06:19:45;99736.63;;;12.11;66.88
25947;BME280;13745;51.470;9.894;2022-10-13T06:22:31;99728.19;;;12.12;67.14
25947;BME280;13745;51.470;9.894;2022-10-13T06:25:17;99727.41;;;12.12;67.09
25947;BME280;13745;51.470;9.894;2022-10-13T06:28:03;99736.56;;;12.16;66.71
25947;BME280;13745;51.470;9.894;2022-10-13T06:30:49;99743.63;;;12.17;67.10
25947;BME280;13745;51.470;9.894;2022-10-13T06:33:41;99742.13;;;12.24;66.97
25947;BME280;13745;51.470;9.894;2022-10-13T06:36:27;99733.97;;;12.24;66.98
25947;BME280;13745;51.470;9.894;2022-10-13T06:39:13;99739.84;;;12.31;66.59
25947;BME280;13745;51.470;9.894;2022-10-13T06:41:59;99747.28;;;12.39;66.55
25947;BME280;13745;51.470;9.894;2022-10-13T06:44:47;99737.31;;;12.53;66.43
25947;BME280;13745;51.470;9.894;2022-10-13T06:47:32;99732.38;;;12.54;66.50
25947;BME280;13745;51.470;9.894;2022-10-13T06:50:20;99730.84;;;12.62;66.16
25947;BME280;13745;51.470;9.894;2022-10-13T06:53:06;99745.72;;;12.69;66.22
25947;BME280;13745;51.470;9.894;2022-10-13T06:55:55;99744.00;;;12.86;65.90
25947;BME280;13745;51.470;9.894;2022-10-13T06:58:40;99760.84;;;13.01;65.69
25947;BME280;13745;51.470;9.894;2022-10-13T07:01:26;99768.19;;;13.14;65.23
25947;BME280;13745;51.470;9.894;2022-10-13T07:04:13;99767.81;;;13.21;65.17
25947;BME280;13745;51.470;9.894;2022-10-13T07:07:00;99759.16;;;13.19;65.23
25947;BME280;13745;51.470;9.894;2022-10-13T07:09:46;99751.50;;;13.21;65.28
25947;BME280;13745;51.470;9.894;2022-10-13T07:12:32;99746.84;;;13.21;65.29
25947;BME280;13745;51.470;9.894;2022-10-13T07:15:18;99741.84;;;13.28;65.17
25947;BME280;13745;51.470;9.894;2022-10-13T07:18:07;99771.53;;;13.38;65.03
25947;BME280;13745;51.470;9.894;2022-10-13T07:20:53;99762.53;;;13.50;64.71
25947;BME280;13745;51.470;9.894;2022-10-13T07:23:40;99766.78;;;13.56;64.82
25947;BME280;13745;51.470;9.894;2022-10-13T07:26:26;99769.78;;;13.68;64.55
25947;BME280;13745;51.470;9.894;2022-10-13T07:29:12;99782.06;;;13.79;64.42
25947;BME280;13745;51.470;9.894;2022-10-13T07:31:58;99772.78;;;13.93;64.01
25947;BME280;13745;51.470;9.894;2022-10-13T07:34:44;99769.63;;;13.99;63.90
25947;BME280;13745;51.470;9.894;2022-10-13T07:37:29;99780.78;;;14.11;63.79
25947;BME280;13745;51.470;9.894;2022-10-13T07:40:17;99764.34;;;14.16;63.82
25947;BME280;13745;51.470;9.894;2022-10-13T07:43:03;99764.22;;;14.21;63.71
25947;BME280;13745;51.470;9.894;2022-10-13T07:45:48;99774.66;;;14.27;63.66
25947;BME280;13745;51.470;9.894;2022-10-13T07:48:38;99770.81;;;14.41;63.17
25947;BME280;13745;51.470;9.894;2022-10-13T07:51:23;99781.81;;;14.58;62.88
25947;BME280;13745;51.470;9.894;2022-10-13T07:54:09;99782.53;;;14.72;62.77
25947;BME280;13745;51.470;9.894;2022-10-13T07:56:56;99774.03;;;14.95;62.27
25947;BME280;13745;51.470;9.894;2022-10-13T07:59:42;99766.13;;;15.15;62.00
25947;BME280;13745;51.470;9.894;2022-10-13T08:02:31;99770.22;;;15.34;61.58
25947;BME280;13745;51.470;9.894;2022-10-13T08:05:18;99752.31;;;15.58;61.57
25947;BME280;13745;51.470;9.894;2022-10-13T08:08:04;99755.13;;;15.91;60.74
25947;BME280;13745;51.470;9.894;2022-10-13T08:10:50;99763.81;;;16.10;60.40
25947;BME280;13745;51.470;9.894;2022-10-13T08:13:38;99765.75;;;16.26;60.33
25947;BME280;13745;51.470;9.894;2022-10-13T08:16:38;99763.50;;;16.36;60.21
25947;BME280;13745;51.470;9.894;2022-10-13T08:19:25;99755.94;;;16.33;60.18
25947;BME280;13745;51.470;9.894;2022-10-13T08:22:12;99764.00;;;16.30;60.26
25947;BME280;13745;51.470;9.894;2022-10-13T08:24:57;99759.16;;;16.35;60.02
25947;BME280;13745;51.470;9.894;2022-10-13T08:27:45;99750.00;;;16.48;59.68
25947;BME280;13745;51.470;9.894;2022-10-13T08:30:32;99763.47;;;16.53;59.66
25947;BME280;13745;51.470;9.894;2022-10-13T08:33:18;99757.06;;;16.65;59.34
25947;BME280;13745;51.470;9.894;2022-10-13T08:36:04;99743.56;;;17.14;58.27
25947;BME280;13745;51.470;9.894;2022-10-13T08:38:50;99740.81;;;17.79;56.81
25947;BME280;13745;51.470;9.894;2022-10-13T08:41:38;99740.31;;;18.25;55.75
25947;BME280;13745;51.470;9.894;2022-10-13T08:44:32;99746.53;;;18.54;55.08
25947;BME280;13745;51.470;9.894;2022-10-13T08:47:27;99752.59;;;18.39;55.31
25947;BME280;13745;51.470;9.894;2022-10-13T08:50:17;99732.50;;;18.67;54.77
25947;BME280;13745;51.470;9.894;2022-10-13T08:53:08;99744.16;;;18.96;54.03
25947;BME280;13745;51.470;9.894;2022-10-13T08:55:57;99735.53;;;19.29;53.15
25947;BME280;13745;51.470;9.894;2022-10-13T08:58:45;99754.16;;;19.24;53.36
25947;BME280;13745;51.470;9.894;2022-10-13T09:01:33;99766.69;;;19.69;52.49
25947;BME280;13745;51.470;9.894;2022-10-13T09:04:28;99761.94;;;20.66;50.54
25947;BME280;13745;51.470;9.894;2022-10-13T09:07:18;99754.28;;;20.75;50.06
25947;BME280;13745;51.470;9.894;2022-10-13T09:10:06;99749.09;;;20.86;49.79
25947;BME280;13745;51.470;9.894;2022-10-13T09:12:52;99745.50;;;21.27;49.11
25947;BME280;13745;51.470;9.894;2022-10-13T09:15:42;99752.81;;;22.14;47.39
25947;BME280;13745;51.470;9.894;2022-10-13T09:18:31;99742.81;;;23.62;44.59
25947;BME280;13745;51.470;9.894;2022-10-13T09:21:21;99746.88;;;25.09;42.39
25947;BME280;13745;51.470;9.894;2022-10-13T09:24:13;99735.00;;;25.44;41.96
25947;BME280;13745;51.470;9.894;2022-10-13T09:27:05;99706.84;;;25.95;41.01
25947;BME280;13745;51.470;9.894;2022-10-13T09:29:53;99714.41;;;26.64;39.44
25947;BME280;13745;51.470;9.894;2022-10-13T09:32:39;99691.50;;;28.18;36.97
25947;BME280;13745;51.470;9.894;2022-10-13T09:35:24;99681.81;;;29.80;34.74
25947;BME280;13745;51.470;9.894;2022-10-13T09:38:13;99676.59;;;31.88;32.27
25947;BME280;13745;51.470;9.894;2022-10-13T09:41:03;99690.47;;;34.25;29.43
25947;BME280;13745;51.470;9.894;2022-10-13T09:43:59;99718.88;;;36.46;27.25
25947;BME280;13745;51.470;9.894;2022-10-13T09:46:50;99728.78;;;38.03;25.20
25947;BME280;13745;51.470;9.894;2022-10-13T09:49:42;99723.47;;;39.37;24.27
25947;BME280;13745;51.470;9.894;2022-10-13T09:52:28;99727.94;;;40.24;23.17
25947;BME280;13745;51.470;9.894;2022-10-13T09:55:29;99737.47;;;41.33;22.19
25947;BME280;13745;51.470;9.894;2022-10-13T09:58:19;99739.84;;;41.97;21.31
25947;BME280;13745;51.470;9.894;2022-10-13T10:01:15;99737.22;;;42.86;20.54
25947;BME280;13745;51.470;9.894;2022-10-13T10:04:03;99731.19;;;44.25;19.09
25947;BME280;13745;51.470;9.894;2022-10-13T10:06:51;99724.13;;;44.20;19.01
25947;BME280;13745;51.470;9.894;2022-10-13T10:09:39;99714.69;;;43.68;18.67
25947;BME280;13745;51.470;9.894;2022-10-13T10:12:30;99706.34;;;43.34;18.82
25947;BME280;13745;51.470;9.894;2022-10-13T10:15:22;99707.16;;;43.15;19.08
25947;BME280;13745;51.470;9.894;2022-10-13T10:18:14;99701.72;;;42.47;19.57
25947;BME280;13745;51.470;9.894;2022-10-13T10:21:02;99705.16;;;42.76;21.01
25947;BME280;13745;51.470;9.894;2022-10-13T10:23:53;99691.69;;;42.96;19.81
25947;BME280;13745;51.470;9.894;2022-10-13T10:26:50;99702.88;;;43.85;19.37
25947;BME280;13745;51.470;9.894;2022-10-13T10:29:44;99696.22;;;45.57;17.59
25947;BME280;13745;51.470;9.894;2022-10-13T10:32:39;99707.97;;;46.74;16.36
25947;BME280;13745;51.470;9.894;2022-10-13T10:35:37;99694.06;;;47.28;15.61
25947;BME280;13745;51.470;9.894;2022-10-13T10:38:34;99689.75;;;47.05;15.41
25947;BME280;13745;51.470;9.894;2022-10-13T10:41:37;99701.19;;;45.51;16.31
25947;BME280;13745;51.470;9.894;2022-10-13T10:44:29;99683.44;;;45.90;16.50
25947;BME280;13745;51.470;9.894;2022-10-13T10:47:23;99689.31;;;46.96;15.31
25947;BME280;13745;51.470;9.894;2022-10-13T10:50:13;99684.09;;;46.39;15.56
25947;BME280;13745;51.470;9.894;2022-10-13T10:53:01;99677.31;;;46.31;15.41
25947;BME280;13745;51.470;9.894;2022-10-13T10:55:53;99675.06;;;46.13;15.53
25947;BME280;13745;51.470;9.894;2022-10-13T10:58:43;99668.16;;;44.50;16.27
25947;BME280;13745;51.470;9.894;2022-10-13T11:01:37;99660.28;;;42.96;16.89
25947;BME280;13745;51.470;9.894;2022-10-13T11:04:39;99650.69;;;41.14;17.90
25947;BME280;13745;51.470;9.894;2022-10-13T11:07:54;99638.81;;;38.95;19.76
25947;BME280;13745;51.470;9.894;2022-10-13T11:10:41;99639.72;;;37.39;20.58
25947;BME280;13745;51.470;9.894;2022-10-13T11:13:26;99642.63;;;35.67;21.97
25947;BME280;13745;51.470;9.894;2022-10-13T11:16:27;99623.19;;;34.03;23.12
25947;BME280;13745;51.470;9.894;2022-10-13T11:19:28;99611.84;;;32.62;24.16
25947;BME280;13745;51.470;9.894;2022-10-13T11:22:20;99609.78;;;31.64;25.15
25947;BME280;13745;51.470;9.894;2022-10-13T11:25:35;99615.66;;;30.72;26.15
25947;BME280;13745;51.470;9.894;2022-10-13T11:28:53;99610.75;;;30.17;26.60
25947;BME280;13745;51.470;9.894;2022-10-13T11:31:50;99607.84;;;29.55;27.13
25947;BME280;13745;51.470;9.894;2022-10-13T11:34:36;99611.69;;;29.22;27.58
25947;BME280;13745;51.470;9.894;2022-10-13T11:37:27;99606.72;;;28.89;28.05
25947;BME280;13745;51.470;9.894;2022-10-13T11:40:23;99598.19;;;28.53;28.51
25947;BME280;13745;51.470;9.894;2022-10-13T11:43:33;99600.00;;;28.06;29.16
25947;BME280;13745;51.470;9.894;2022-10-13T11:46:35;99603.78;;;29.13;28.28
25947;BME280;13745;51.470;9.894;2022-10-13T11:49:47;99598.66;;;30.86;26.84
25947;BME280;13745;51.470;9.894;2022-10-13T11:52:50;99583.28;;;32.10;26.00
25947;BME280;13745;51.470;9.894;2022-10-13T11:55:46;99586.88;;;30.98;26.89
25947;BME280;13745;51.470;9.894;2022-10-13T11:58:32;99586.78;;;29.84;27.91
25947;BME280;13745;51.470;9.894;2022-10-13T12:01:18;99578.75;;;29.06;28.73
25947;BME280;13745;51.470;9.894;2022-10-13T12:04:12;99567.22;;;28.37;29.57
25947;BME280;13745;51.470;9.894;2022-10-13T12:07:01;99569.06;;;27.77;29.98
25947;BME280;13745;51.470;9.894;2022-10-13T12:09:50;99577.47;;;27.32;30.80
25947;BME280;13745;51.470;9.894;2022-10-13T12:12:45;99573.84;;;26.67;31.38
25947;BME280;13745;51.470;9.894;2022-10-13T12:15:33;99570.09;;;26.05;32.12
25947;BME280;13745;51.470;9.894;2022-10-13T12:18:22;99574.97;;;25.62;32.52
25947;BME280;13745;51.470;9.894;2022-10-13T12:21:10;99570.47;;;25.40;32.83
25947;BME280;13745;51.470;9.894;2022-10-13T12:24:05;99566.38;;;25.24;33.30
25947;BME280;13745;51.470;9.894;2022-10-13T12:26:53;99558.81;;;25.17;33.36
25947;BME280;13745;51.470;9.894;2022-10-13T12:29:39;99555.59;;;25.12;33.38
25947;BME280;13745;51.470;9.894;2022-10-13T12:32:27;99555.09;;;25.00;33.47
25947;BME280;13745;51.470;9.894;2022-10-13T12:35:17;99537.88;;;24.74;34.04
25947;BME280;13745;51.470;9.894;2022-10-13T12:38:05;99542.47;;;24.60;34.37
25947;BME280;13745;51.470;9.894;2022-10-13T12:40:53;99544.84;;;24.61;34.51
25947;BME280;13745;51.470;9.894;2022-10-13T12:43:43;99547.91;;;24.53;34.95
25947;BME280;13745;51.470;9.894;2022-10-13T12:46:37;99540.63;;;24.35;35.33
25947;BME280;13745;51.470;9.894;2022-10-13T12:49:25;99544.69;;;24.08;35.33
25947;BME280;13745;51.470;9.894;2022-10-13T12:52:14;99539.09;;;23.76;35.74
25947;BME280;13745;51.470;9.894;2022-10-13T12:55:01;99544.53;;;23.40;36.26
25947;BME280;13745;51.470;9.894;2022-10-13T12:57:48;99538.06;;;23.04;36.89
25947;BME280;13745;51.470;9.894;2022-10-13T13:00:36;99534.19;;;22.65;37.57
25947;BME280;13745;51.470;9.894;2022-10-13T13:03:26;99530.03;;;22.30;38.15
25947;BME280;13745;51.470;9.894;2022-10-13T13:06:27;99530.81;;;22.08;38.61
25947;BME280;13745;51.470;9.894;2022-10-13T13:09:20;99538.50;;;22.00;38.65
25947;BME280;13745;51.470;9.894;2022-10-13T13:12:22;99529.81;;;21.98;38.95
25947;BME280;13745;51.470;9.894;2022-10-13T13:15:29;99540.25;;;22.07;38.96
25947;BME280;13745;51.470;9.894;2022-10-13T13:18:29;99530.66;;;22.01;39.11
25947;BME280;13745;51.470;9.894;2022-10-13T13:21:17;99532.13;;;22.36;38.77
25947;BME280;13745;51.470;9.894;2022-10-13T13:24:04;99530.03;;;22.52;38.67
25947;BME280;13745;51.470;9.894;2022-10-13T13:26:50;99523.78;;;22.33;39.13
25947;BME280;13745;51.470;9.894;2022-10-13T13:29:36;99536.19;;;22.01;39.57
25947;BME280;13745;51.470;9.894;2022-10-13T13:32:23;99527.63;;;21.69;40.02
25947;BME280;13745;51.470;9.894;2022-10-13T13:35:11;99530.28;;;21.47;40.51
25947;BME280;13745;51.470;9.894;2022-10-13T13:37:57;99523.97;;;21.13;41.14
25947;BME280;13745;51.470;9.894;2022-10-13T13:40:43;99519.09;;;21.07;41.31
25947;BME280;13745;51.470;9.894;2022-10-13T13:43:30;99531.91;;;20.99;41.66
25947;BME280;13745;51.470;9.894;2022-10-13T13:46:17;99528.09;;;20.88;41.98
25947;BME280;13745;51.470;9.894;2022-10-13T13:49:03;99528.56;;;20.75;42.17
25947;BME280;13745;51.470;9.894;2022-10-13T13:51:51;99521.19;;;20.64;42.50
25947;BME280;13745;51.470;9.894;2022-10-13T13:54:37;99524.69;;;20.46;42.96
25947;BME280;13745;51.470;9.894;2022-10-13T13:57:23;99516.47;;;20.34;43.22
25947;BME280;13745;51.470;9.894;2022-10-13T14:00:10;99516.56;;;20.22;43.45
25947;BME280;13745;51.470;9.894;2022-10-13T14:02:56;99520.72;;;20.17;43.78
25947;BME280;13745;51.470;9.894;2022-10-13T14:05:42;99521.25;;;20.07;43.86
25947;BME280;13745;51.470;9.894;2022-10-13T14:08:30;99520.88;;;19.93;44.39
25947;BME280;13745;51.470;9.894;2022-10-13T14:11:16;99506.72;;;19.79;44.61
25947;BME280;13745;51.470;9.894;2022-10-13T14:14:02;99509.06;;;19.66;44.98
25947;BME280;13745;51.470;9.894;2022-10-13T14:16:48;99505.56;;;19.53;45.17
25947;BME280;13745;51.470;9.894;2022-10-13T14:19:34;99507.56;;;19.41;45.60
25947;BME280;13745;51.470;9.894;2022-10-13T14:22:20;99502.91;;;19.30;45.73
25947;BME280;13745;51.470;9.894;2022-10-13T14:25:08;99499.56;;;19.25;46.06
25947;BME280;13745;51.470;9.894;2022-10-13T14:27:54;99504.53;;;19.19;46.13
25947;BME280;13745;51.470;9.894;2022-10-13T14:30:40;99501.78;;;19.19;46.27
25947;BME280;13745;51.470;9.894;2022-10-13T14:33:26;99507.63;;;19.18;46.50
25947;BME280;13745;51.470;9.894;2022-10-13T14:36:13;99508.41;;;19.18;46.61
25947;BME280;13745;51.470;9.894;2022-10-13T14:38:59;99498.94;;;19.16;46.68
25947;BME280;13745;51.470;9.894;2022-10-13T14:41:46;99498.44;;;19.14;46.91
25947;BME280;13745;51.470;9.894;2022-10-13T14:44:32;99505.09;;;19.13;46.92
25947;BME280;13745;51.470;9.894;2022-10-13T14:47:18;99506.84;;;19.06;47.12
25947;BME280;13745;51.470;9.894;2022-10-13T14:50:04;99504.19;;;19.09;47.21
25947;BME280;13745;51.470;9.894;2022-10-13T14:52:50;99502.69;;;19.11;47.22
25947;BME280;13745;51.470;9.894;2022-10-13T14:55:36;99501.00;;;19.07;47.41